HKJK

Jomo Kenyatta International Airport

Nairobi, Kenya
METAR HKJK 191500Z 06009KT 9999 BKN025 21/12 Q1021
Observed Flight Rules
Aug-19 @ 15:00 UTC (39 minutes ago) Marginal Visual Flight Rules
Wind Visibility Clouds
60° at 9 knots 10,000+ meters
  • Broken at 2,500' AGL
Temperatures Readings
Current 21°C / 70°F
Dewpoint 12°C / 54°F
Humidity 57%
Altimeter 30.15" Hg
Pressure 1021 hPa
Elevation 1624
METAR HKJK 191500Z 06009KT 9999 BKN025 21/12 Q1021
Observed Flight Rules
Aug-19 @ 15:00 UTC
(39 minutes ago)
MVFR
Wind Visibility
60° at 9 knots 10,000+ meters
Clouds
  • Broken at 2,500' AGL
Temperature Dewpoint
21°C / 70°F 12°C / 54°F
Humidity Altimeter Pressure
57% 30.15" Hg 1021 hPa